Time;durP1;ratioP1;P1;durP2;ratioP2;P2;SDS_P1;SDS_P2;PMS_P1;PMS_P2;Temp;Humidity;BMP_temperature;BMP_pressure;BME280_temperature;BME280_humidity;BME280_pressure;Samples;Min_cycle;Max_cycle;Signal;HPM_P1;HPM_P2
2022/01/05 00:00:42;;;;;;;8.90;4.40;;;4.10;99.90;;;;;;4961206;28;20478;-72
2022/01/05 00:03:09;;;;;;;14.88;5.30;;;4.00;99.90;;;;;;4961310;28;20409;-73
2022/01/05 00:05:35;;;;;;;16.08;3.85;;;4.10;99.90;;;;;;4961661;29;20512;-74
2022/01/05 00:08:00;;;;;;;14.55;3.22;;;4.00;99.90;;;;;;4960685;29;20393;-71
2022/01/05 00:10:26;;;;;;;21.63;5.07;;;3.90;99.90;;;;;;4962344;28;20386;-73
2022/01/05 00:12:52;;;;;;;16.50;5.60;;;3.90;99.90;;;;;;4962974;29;20432;-73
2022/01/05 00:15:17;;;;;;;11.00;4.73;;;4.00;99.90;;;;;;4959367;29;20390;-72
2022/01/05 00:17:43;;;;;;;20.13;5.00;;;4.20;99.90;;;;;;4965384;28;20429;-71
2022/01/05 00:20:09;;;;;;;16.10;4.90;;;4.20;99.90;;;;;;4970778;29;20402;-73
2022/01/05 00:22:35;;;;;;;14.73;5.00;;;4.30;99.90;;;;;;4962246;29;20775;-72
2022/01/05 00:25:01;;;;;;;13.98;4.50;;;4.30;99.90;;;;;;4958144;29;20416;-72
2022/01/05 00:27:26;;;;;;;12.57;4.70;;;4.30;99.90;;;;;;4955599;28;20486;-73
2022/01/05 00:29:53;;;;;;;28.83;5.22;;;4.30;99.90;;;;;;4954586;29;20426;-73
2022/01/05 00:32:19;;;;;;;10.60;3.60;;;4.50;99.90;;;;;;4935172;29;20415;-73
2022/01/05 00:34:45;;;;;;;24.43;4.63;;;4.50;99.90;;;;;;4934670;29;20388;-73
2022/01/05 00:37:10;;;;;;;14.48;3.55;;;4.50;99.90;;;;;;4933881;29;20810;-73
2022/01/05 00:39:36;;;;;;;21.27;4.13;;;4.40;99.90;;;;;;4934609;29;20867;-73
2022/01/05 00:42:02;;;;;;;23.55;4.30;;;4.40;99.90;;;;;;4934807;29;20406;-71
2022/01/05 00:44:28;;;;;;;21.63;4.00;;;4.40;99.90;;;;;;4934394;29;20392;-73
2022/01/05 00:46:54;;;;;;;10.43;4.30;;;4.30;99.90;;;;;;4948581;29;20900;-71
2022/01/05 00:49:19;;;;;;;11.75;3.80;;;4.30;99.90;;;;;;4948870;28;20403;-73
2022/01/05 00:51:45;;;;;;;12.25;3.38;;;4.20;99.90;;;;;;4934368;28;20383;-73
2022/01/05 00:54:10;;;;;;;18.60;3.55;;;4.10;99.90;;;;;;4948683;28;20407;-72
2022/01/05 00:56:36;;;;;;;13.23;3.77;;;4.10;99.90;;;;;;4933784;29;20407;-72
2022/01/05 00:59:02;;;;;;;16.60;5.90;;;4.10;99.90;;;;;;4933740;29;20482;-73
2022/01/05 01:01:27;;;;;;;19.77;3.30;;;4.00;99.90;;;;;;4933842;29;20411;-73
2022/01/05 01:03:53;;;;;;;13.48;3.40;;;4.10;99.90;;;;;;4933705;28;20388;-74
2022/01/05 01:06:19;;;;;;;16.77;3.65;;;4.20;99.90;;;;;;4933540;29;20834;-73
2022/01/05 01:08:44;;;;;;;11.60;3.60;;;4.20;99.90;;;;;;4933527;29;20395;-73
2022/01/05 01:11:10;;;;;;;22.90;4.40;;;4.10;99.90;;;;;;4934099;29;20398;-74
2022/01/05 01:13:35;;;;;;;11.70;3.37;;;4.10;99.90;;;;;;4934463;29;20459;-72
2022/01/05 01:16:01;;;;;;;11.80;3.17;;;4.10;99.90;;;;;;4934726;29;20859;-73
2022/01/05 01:18:27;;;;;;;14.35;4.13;;;4.10;99.90;;;;;;4934390;29;20400;-73
2022/01/05 01:20:53;;;;;;;12.13;3.40;;;4.10;99.90;;;;;;4953438;29;20825;-72
2022/01/05 01:23:21;;;;;;;11.02;3.50;;;4.10;99.90;;;;;;4940894;29;20404;-71
2022/01/05 01:25:50;;;;;;;11.45;3.95;;;4.00;99.90;;;;;;4936286;29;20896;-72
2022/01/05 01:28:17;;;;;;;16.43;4.17;;;4.00;99.90;;;;;;4944403;29;20396;-73
2022/01/05 01:30:43;;;;;;;16.23;5.28;;;4.10;99.90;;;;;;4959950;29;20411;-72
2022/01/05 01:33:09;;;;;;;11.70;4.53;;;4.10;99.90;;;;;;4933197;29;20390;-74
2022/01/05 01:35:34;;;;;;;12.43;5.10;;;4.10;99.90;;;;;;4934292;29;20396;-74
2022/01/05 01:38:00;;;;;;;12.70;5.22;;;4.10;99.90;;;;;;4936908;29;20395;-73
2022/01/05 01:40:26;;;;;;;13.43;5.40;;;4.10;99.90;;;;;;4936832;29;20392;-73
2022/01/05 01:42:52;;;;;;;16.60;6.00;;;4.10;99.90;;;;;;4937091;29;20738;-73
2022/01/05 01:45:18;;;;;;;18.10;6.15;;;4.10;99.90;;;;;;4936722;29;20421;-74
2022/01/05 01:47:43;;;;;;;13.30;6.30;;;4.10;99.90;;;;;;4936696;29;20395;-74
2022/01/05 01:50:10;;;;;;;18.13;6.53;;;4.10;99.90;;;;;;4937194;29;20418;-74
2022/01/05 01:52:36;;;;;;;25.50;7.07;;;4.10;99.90;;;;;;4952126;29;20395;-74
2022/01/05 01:55:02;;;;;;;18.88;6.07;;;4.00;99.90;;;;;;4937111;29;20398;-74
2022/01/05 01:57:35;;;;;;;19.35;6.80;;;4.10;99.90;;;;;;4951076;29;20551;-74
2022/01/05 02:00:02;;;;;;;22.65;7.40;;;4.10;99.90;;;;;;4936548;29;20399;-74
2022/01/05 02:02:28;;;;;;;16.60;7.97;;;4.10;99.90;;;;;;4936525;29;20407;-74
2022/01/05 02:04:54;;;;;;;20.08;8.20;;;4.00;99.90;;;;;;4936807;29;20412;-74
2022/01/05 02:07:20;;;;;;;19.20;9.25;;;4.00;99.90;;;;;;4936013;29;20439;-74
2022/01/05 02:09:45;;;;;;;22.63;9.95;;;4.00;99.90;;;;;;4936679;29;20419;-74
2022/01/05 02:12:11;;;;;;;21.07;9.80;;;4.00;99.90;;;;;;4935344;29;20407;-73
2022/01/05 02:14:36;;;;;;;21.63;9.67;;;4.00;99.90;;;;;;4936932;29;20395;-73
2022/01/05 02:17:08;;;;;;;28.47;11.10;;;3.90;99.90;;;;;;4936609;29;20400;-74
2022/01/05 02:19:33;;;;;;;28.08;10.35;;;3.90;99.90;;;;;;4935547;29;20804;-74
2022/01/05 02:21:59;;;;;;;28.10;10.30;;;3.80;99.90;;;;;;4935498;29;20428;-73
2022/01/05 02:24:25;;;;;;;28.48;10.73;;;3.80;99.90;;;;;;4937571;29;20410;-74
2022/01/05 02:26:50;;;;;;;27.42;11.60;;;3.70;99.90;;;;;;4936997;29;20912;-73
2022/01/05 02:29:16;;;;;;;25.37;10.00;;;3.80;99.90;;;;;;4936463;29;20943;-74
2022/01/05 02:31:41;;;;;;;27.07;11.00;;;3.70;99.90;;;;;;4937532;29;20391;-73
2022/01/05 02:34:07;;;;;;;23.70;10.68;;;3.60;99.90;;;;;;4937994;29;20403;-73
2022/01/05 02:36:33;;;;;;;25.77;9.98;;;3.70;99.90;;;;;;4953401;29;20478;-73
2022/01/05 02:38:58;;;;;;;22.23;9.20;;;3.60;99.90;;;;;;4939842;29;20400;-73
2022/01/05 02:41:24;;;;;;;25.17;10.33;;;3.60;99.90;;;;;;4937568;29;20392;-74
2022/01/05 02:43:50;;;;;;;25.50;10.40;;;3.60;99.90;;;;;;4937922;29;20391;-74
2022/01/05 02:46:18;;;;;;;25.98;10.48;;;3.50;99.90;;;;;;4935377;29;20419;-73
2022/01/05 02:48:45;;;;;;;28.67;10.95;;;3.50;99.90;;;;;;4935149;29;20498;-73
2022/01/05 02:51:11;;;;;;;24.00;10.85;;;3.50;99.90;;;;;;4936068;29;20394;-73
2022/01/05 02:53:37;;;;;;;21.83;11.40;;;3.50;99.90;;;;;;4935831;29;20785;-73
2022/01/05 02:56:04;;;;;;;33.05;10.98;;;3.40;99.90;;;;;;4934513;28;20419;-72
2022/01/05 02:58:29;;;;;;;19.08;10.25;;;3.40;99.90;;;;;;4936332;29;20455;-73
2022/01/05 03:00:55;;;;;;;25.77;11.10;;;3.30;99.90;;;;;;4937294;29;20400;-73
2022/01/05 03:03:21;;;;;;;22.58;10.48;;;3.30;99.90;;;;;;4935804;29;20450;-72
2022/01/05 03:05:47;;;;;;;28.08;10.85;;;3.30;99.90;;;;;;4936640;29;20412;-74
2022/01/05 03:08:12;;;;;;;29.57;10.20;;;3.30;99.90;;;;;;4939321;29;20395;-73
2022/01/05 03:10:38;;;;;;;29.07;10.80;;;3.20;99.90;;;;;;4939503;29;20392;-73
2022/01/05 03:13:03;;;;;;;26.92;10.55;;;3.20;99.90;;;;;;4941522;29;20757;-73
2022/01/05 03:15:29;;;;;;;26.38;9.40;;;3.20;99.90;;;;;;4945158;29;20431;-74
2022/01/05 03:17:55;;;;;;;23.50;9.53;;;3.20;99.90;;;;;;4964103;28;20585;-74
2022/01/05 03:20:22;;;;;;;35.30;9.90;;;3.20;97.70;;;;;;4944873;29;20396;-72
2022/01/05 03:22:48;;;;;;;21.05;8.73;;;3.20;99.20;;;;;;4959129;28;20439;-71
2022/01/05 03:25:18;;;;;;;23.38;8.63;;;3.20;97.50;;;;;;4942853;29;20412;-73
2022/01/05 03:27:45;;;;;;;17.45;7.97;;;3.10;98.50;;;;;;4936984;29;20396;-71
2022/01/05 03:30:13;;;;;;;23.33;7.80;;;3.10;98.10;;;;;;4937104;29;20394;-71
2022/01/05 03:32:54;;;;;;;21.55;6.95;;;3.10;95.10;;;;;;4937366;29;20387;-74
2022/01/05 03:35:20;;;;;;;26.15;7.30;;;3.10;92.90;;;;;;4935949;29;20694;-72
2022/01/05 03:37:46;;;;;;;16.93;6.30;;;3.10;90.60;;;;;;4935501;29;20444;-73
2022/01/05 03:40:11;;;;;;;20.10;6.57;;;3.10;89.50;;;;;;4935781;29;21189;-74
2022/01/05 03:42:37;;;;;;;18.15;5.60;;;3.10;91.20;;;;;;4936025;29;20408;-73
2022/01/05 03:45:03;;;;;;;18.20;5.70;;;3.00;90.80;;;;;;4942056;29;20765;-73
2022/01/05 03:47:28;;;;;;;18.43;5.43;;;3.00;89.30;;;;;;4951664;29;20394;-72
2022/01/05 03:49:54;;;;;;;22.50;6.40;;;2.90;92.60;;;;;;4936926;29;20411;-72
2022/01/05 03:52:19;;;;;;;19.80;5.57;;;3.00;88.00;;;;;;4947745;29;20410;-73
2022/01/05 03:54:45;;;;;;;18.63;5.40;;;3.00;86.40;;;;;;4954412;29;20396;-73
2022/01/05 03:57:11;;;;;;;15.60;5.23;;;2.90;88.50;;;;;;4946955;29;20758;-71
2022/01/05 03:59:36;;;;;;;19.87;5.50;;;2.90;86.00;;;;;;4936908;29;20466;-74
2022/01/05 04:02:02;;;;;;;18.23;4.90;;;2.90;86.10;;;;;;4944909;29;20400;-72
2022/01/05 04:04:28;;;;;;;18.45;5.35;;;2.80;86.50;;;;;;4953147;29;20497;-72
2022/01/05 04:06:53;;;;;;;15.77;4.40;;;2.90;85.70;;;;;;4951191;29;20418;-71
2022/01/05 04:09:19;;;;;;;16.40;4.83;;;2.90;82.40;;;;;;4951355;29;20388;-73
2022/01/05 04:11:44;;;;;;;21.00;5.57;;;2.90;83.50;;;;;;4961384;29;20399;-73
2022/01/05 04:14:10;;;;;;;14.43;4.97;;;2.90;83.90;;;;;;4948804;29;20873;-73
2022/01/05 04:16:36;;;;;;;15.85;4.68;;;2.80;83.50;;;;;;4942281;29;20391;-73
2022/01/05 04:19:02;;;;;;;17.52;4.80;;;2.80;82.40;;;;;;4935088;29;20918;-72
2022/01/05 04:21:27;;;;;;;13.73;4.57;;;2.90;78.80;;;;;;4934673;29;20749;-72
2022/01/05 04:23:53;;;;;;;19.23;4.83;;;2.90;79.30;;;;;;4935683;29;20478;-73
2022/01/05 04:26:18;;;;;;;20.80;4.40;;;2.90;81.90;;;;;;4957424;23;20555;-70
2022/01/05 04:28:44;;;;;;;14.85;4.05;;;2.80;79.90;;;;;;4992154;28;20390;-71
2022/01/05 04:31:10;;;;;;;20.77;4.90;;;2.80;78.20;;;;;;4992306;28;20374;-72
2022/01/05 04:33:35;;;;;;;16.48;4.40;;;2.80;78.60;;;;;;4992537;28;20383;-70
2022/01/05 04:36:01;;;;;;;19.20;4.70;;;2.80;79.30;;;;;;5000731;28;20893;-72
2022/01/05 04:38:26;;;;;;;16.67;4.07;;;2.80;77.40;;;;;;5004592;28;20851;-72
2022/01/05 04:40:52;;;;;;;21.55;4.53;;;2.80;78.70;;;;;;5004087;28;20446;-71
2022/01/05 04:43:17;;;;;;;20.05;4.18;;;2.80;80.50;;;;;;4999584;28;20390;-72
2022/01/05 04:45:43;;;;;;;17.23;5.00;;;2.70;79.60;;;;;;4998610;28;20499;-70
2022/01/05 04:48:08;;;;;;;20.83;5.13;;;2.80;77.40;;;;;;4991986;28;20398;-72
2022/01/05 04:50:34;;;;;;;19.93;5.40;;;2.90;76.20;;;;;;4995517;28;20386;-72
2022/01/05 04:53:00;;;;;;;18.67;5.33;;;2.90;77.70;;;;;;4997757;28;20389;-72
2022/01/05 04:55:25;;;;;;;21.58;5.47;;;2.90;77.70;;;;;;4999772;28;20450;-71
2022/01/05 04:57:51;;;;;;;17.98;5.13;;;2.80;77.10;;;;;;4996766;28;20398;-71
2022/01/05 05:00:16;;;;;;;16.93;5.27;;;2.90;75.90;;;;;;4998304;28;20827;-71
2022/01/05 05:02:42;;;;;;;29.00;6.23;;;2.80;76.80;;;;;;4997015;28;20719;-72
2022/01/05 05:05:08;;;;;;;15.50;5.10;;;2.80;78.00;;;;;;4993071;28;20746;-72
2022/01/05 05:07:33;;;;;;;14.63;4.45;;;2.80;74.20;;;;;;4990518;28;20391;-72
2022/01/05 05:09:59;;;;;;;18.60;5.37;;;2.80;74.30;;;;;;4992237;28;20417;-71
2022/01/05 05:12:24;;;;;;;22.33;4.60;;;2.70;77.10;;;;;;4995376;28;20399;-71
2022/01/05 05:14:50;;;;;;;25.50;5.00;;;2.60;76.90;;;;;;4994596;28;20386;-71
2022/01/05 05:17:16;;;;;;;12.45;5.15;;;2.60;77.90;;;;;;4995246;28;20394;-70
2022/01/05 05:19:42;;;;;;;19.60;5.00;;;2.60;78.10;;;;;;4995702;28;20382;-71
2022/01/05 05:22:07;;;;;;;22.17;4.80;;;2.60;75.20;;;;;;4996208;28;20386;-72
2022/01/05 05:24:33;;;;;;;12.38;4.40;;;2.60;73.70;;;;;;4995842;28;20374;-72
2022/01/05 05:26:59;;;;;;;22.17;5.23;;;2.80;70.20;;;;;;4994364;28;20794;-72
2022/01/05 05:29:25;;;;;;;21.52;5.70;;;2.80;71.30;;;;;;4993772;28;20482;-72
2022/01/05 05:31:50;;;;;;;20.70;4.50;;;2.90;67.90;;;;;;4995012;28;20707;-72
2022/01/05 05:34:16;;;;;;;14.67;4.70;;;3.00;65.80;;;;;;4995958;28;20398;-72
2022/01/05 05:36:42;;;;;;;15.93;5.00;;;3.10;67.90;;;;;;4995505;28;20390;-72
2022/01/05 05:39:07;;;;;;;19.15;5.50;;;3.20;67.30;;;;;;4995167;28;20391;-72
2022/01/05 05:41:33;;;;;;;23.17;5.63;;;3.20;66.50;;;;;;4995063;28;20390;-71
2022/01/05 05:43:58;;;;;;;15.70;4.57;;;3.20;64.40;;;;;;4994512;28;20486;-71
2022/01/05 05:46:24;;;;;;;19.97;4.60;;;3.30;64.80;;;;;;4994246;28;20883;-70
2022/01/05 05:48:49;;;;;;;17.77;4.65;;;3.20;67.10;;;;;;4994808;28;20473;-72
2022/01/05 05:51:15;;;;;;;22.42;4.68;;;3.30;65.60;;;;;;4994286;28;20546;-72
2022/01/05 05:53:41;;;;;;;14.70;4.88;;;3.30;64.90;;;;;;4994426;28;20470;-71
2022/01/05 05:56:06;;;;;;;19.63;4.33;;;3.40;66.10;;;;;;4994425;28;20409;-71
2022/01/05 05:58:32;;;;;;;20.03;4.10;;;3.40;63.90;;;;;;4994292;28;20466;-71
2022/01/05 06:00:58;;;;;;;16.48;4.10;;;3.40;63.50;;;;;;4994171;28;20492;-71
2022/01/05 06:03:23;;;;;;;21.13;5.00;;;3.50;60.90;;;;;;4994170;28;20405;-71
2022/01/05 06:05:49;;;;;;;11.73;4.30;;;3.50;62.40;;;;;;4994098;28;20503;-71
2022/01/05 06:08:14;;;;;;;15.57;4.23;;;3.60;61.80;;;;;;4993847;28;20391;-72
2022/01/05 06:10:40;;;;;;;14.57;4.27;;;3.60;60.00;;;;;;4994864;28;20414;-72
2022/01/05 06:13:05;;;;;;;12.33;4.50;;;3.50;60.80;;;;;;4994393;28;20394;-72
2022/01/05 06:15:32;;;;;;;17.13;4.60;;;3.50;61.60;;;;;;4993065;28;20393;-71
2022/01/05 06:17:58;;;;;;;21.13;3.90;;;3.50;62.90;;;;;;4994574;28;20415;-72
2022/01/05 06:20:23;;;;;;;18.00;4.78;;;3.50;61.80;;;;;;4994945;28;20542;-72
2022/01/05 06:22:49;;;;;;;22.50;4.70;;;3.60;58.60;;;;;;4994782;28;20387;-72
2022/01/05 06:25:14;;;;;;;9.57;3.70;;;3.70;56.70;;;;;;4994334;28;20402;-72
2022/01/05 06:27:40;;;;;;;24.63;4.20;;;3.70;57.60;;;;;;4996465;28;20399;-71
2022/01/05 06:30:08;;;;;;;16.48;4.00;;;3.70;60.40;;;;;;5001024;28;20743;-71
2022/01/05 06:32:34;;;;;;;19.10;4.40;;;3.70;59.20;;;;;;5003643;28;20382;-71
2022/01/05 06:35:01;;;;;;;21.70;4.55;;;3.70;58.00;;;;;;5008699;28;20386;-72
2022/01/05 06:37:27;;;;;;;22.38;4.40;;;3.70;57.60;;;;;;5001107;28;20395;-72
2022/01/05 06:39:53;;;;;;;15.38;3.90;;;3.80;55.40;;;;;;4995250;28;20720;-72
2022/01/05 06:42:18;;;;;;;21.90;4.80;;;3.80;56.30;;;;;;4993645;28;20460;-73
2022/01/05 06:44:44;;;;;;;20.40;4.90;;;3.80;55.80;;;;;;4993257;28;20914;-72
2022/01/05 06:47:10;;;;;;;21.08;4.30;;;3.80;55.50;;;;;;4992509;28;20573;-71
2022/01/05 06:49:36;;;;;;;18.10;4.80;;;3.80;55.80;;;;;;4993035;28;20387;-71
2022/01/05 06:52:02;;;;;;;23.02;4.82;;;3.90;57.20;;;;;;4993050;28;20391;-72
2022/01/05 06:54:29;;;;;;;21.17;4.63;;;3.90;56.60;;;;;;4993455;28;20390;-72
2022/01/05 06:56:55;;;;;;;9.83;3.70;;;3.90;57.60;;;;;;4993192;28;20930;-72
2022/01/05 06:59:21;;;;;;;16.75;4.28;;;3.90;56.60;;;;;;4993076;28;20726;-71
2022/01/05 07:01:46;;;;;;;16.45;4.50;;;3.90;55.90;;;;;;4993193;28;20748;-72
2022/01/05 07:04:12;;;;;;;17.80;4.47;;;4.00;54.70;;;;;;4993239;28;20898;-71
2022/01/05 07:06:38;;;;;;;21.23;4.40;;;4.00;55.00;;;;;;4991986;28;20858;-72
2022/01/05 07:09:03;;;;;;;21.83;4.37;;;4.00;54.30;;;;;;4992875;28;20452;-71
2022/01/05 07:11:29;;;;;;;17.33;4.07;;;4.00;54.50;;;;;;4991500;28;20394;-71
2022/01/05 07:13:54;;;;;;;17.08;4.15;;;4.00;54.00;;;;;;4992739;28;20448;-71
2022/01/05 07:16:20;;;;;;;23.90;4.70;;;3.90;55.30;;;;;;4993052;28;20887;-72
2022/01/05 07:18:46;;;;;;;16.50;4.50;;;3.90;55.10;;;;;;4992669;28;20445;-72
2022/01/05 07:21:11;;;;;;;14.70;4.30;;;3.90;55.60;;;;;;4992576;28;20390;-71
2022/01/05 07:23:37;;;;;;;28.70;5.77;;;3.90;55.40;;;;;;4993023;28;20390;-71
2022/01/05 07:26:02;;;;;;;16.30;3.60;;;3.90;55.40;;;;;;4992202;28;20892;-72
2022/01/05 07:28:28;;;;;;;18.58;4.40;;;3.90;55.20;;;;;;4992832;28;20482;-72
2022/01/05 07:30:53;;;;;;;19.48;4.93;;;3.80;55.00;;;;;;4993018;28;20433;-72
2022/01/05 07:33:19;;;;;;;17.23;4.40;;;3.90;55.60;;;;;;4992250;28;20449;-73
2022/01/05 07:35:44;;;;;;;18.67;4.53;;;3.90;56.30;;;;;;4993312;28;20882;-72
2022/01/05 07:38:10;;;;;;;19.47;4.57;;;3.90;55.80;;;;;;4993045;28;20528;-72
2022/01/05 07:40:35;;;;;;;18.80;4.40;;;4.00;56.70;;;;;;4992888;28;20464;-72
2022/01/05 07:43:03;;;;;;;16.63;3.97;;;4.00;57.40;;;;;;4993340;28;20417;-72
2022/01/05 07:45:28;;;;;;;19.50;4.63;;;4.00;54.80;;;;;;4993905;28;20899;-73
2022/01/05 07:47:54;;;;;;;16.70;4.50;;;4.10;54.10;;;;;;4992798;28;20402;-72
2022/01/05 07:50:19;;;;;;;19.60;4.70;;;4.00;55.30;;;;;;4992879;28;20395;-72
2022/01/05 07:52:45;;;;;;;25.63;5.17;;;4.10;56.60;;;;;;4994563;28;20470;-73
2022/01/05 07:55:11;;;;;;;14.30;4.47;;;4.10;54.90;;;;;;4997176;28;20398;-72
2022/01/05 07:57:37;;;;;;;19.58;4.60;;;4.10;55.40;;;;;;4993651;28;20394;-72
2022/01/05 08:00:08;;;;;;;15.07;4.43;;;4.10;56.20;;;;;;5003105;28;20512;-72
2022/01/05 08:02:34;;;;;;;20.30;5.50;;;4.20;53.70;;;;;;4998529;28;20753;-72
2022/01/05 08:04:59;;;;;;;20.67;4.60;;;4.20;54.30;;;;;;4992337;28;20406;-71
2022/01/05 08:07:25;;;;;;;20.10;4.50;;;4.20;55.40;;;;;;4991727;28;20501;-72
2022/01/05 08:09:50;;;;;;;15.53;4.20;;;4.20;54.90;;;;;;4992276;28;20393;-72
2022/01/05 08:12:16;;;;;;;17.35;4.35;;;4.20;54.80;;;;;;4991618;28;20399;-72
2022/01/05 08:14:41;;;;;;;19.55;4.82;;;4.30;54.10;;;;;;4991995;28;20398;-71
2022/01/05 08:17:07;;;;;;;22.30;5.38;;;4.40;53.70;;;;;;4991391;28;20386;-72
2022/01/05 08:19:33;;;;;;;17.83;4.80;;;4.30;53.90;;;;;;4991744;28;20510;-72
2022/01/05 08:21:58;;;;;;;21.30;4.60;;;4.30;54.00;;;;;;4991678;28;20391;-71
2022/01/05 08:24:26;;;;;;;21.35;5.45;;;4.30;54.60;;;;;;4991434;28;20393;-72
2022/01/05 08:26:52;;;;;;;15.82;4.93;;;4.40;54.70;;;;;;4991088;28;20941;-70
2022/01/05 08:29:17;;;;;;;19.03;5.57;;;4.40;53.60;;;;;;4991442;28;20399;-72
2022/01/05 08:31:43;;;;;;;30.60;6.03;;;4.40;54.30;;;;;;4991561;28;20413;-71
2022/01/05 08:34:10;;;;;;;15.40;4.90;;;4.50;55.10;;;;;;4991149;28;20474;-72
2022/01/05 08:36:36;;;;;;;16.50;4.90;;;4.50;52.60;;;;;;4991145;28;20390;-72
2022/01/05 08:39:02;;;;;;;25.13;5.70;;;4.60;52.60;;;;;;4991840;28;20406;-73
2022/01/05 08:41:27;;;;;;;20.67;5.75;;;4.60;53.70;;;;;;4990620;28;20405;-72
2022/01/05 08:43:54;;;;;;;19.90;5.50;;;4.70;52.80;;;;;;4991999;28;20466;-72
2022/01/05 08:46:20;;;;;;;15.85;4.63;;;4.60;53.70;;;;;;4993625;28;20484;-72
2022/01/05 08:48:46;;;;;;;18.98;4.82;;;4.70;53.30;;;;;;4995479;28;20382;-72
2022/01/05 08:51:11;;;;;;;18.17;5.03;;;4.70;53.70;;;;;;4995300;28;20394;-72
2022/01/05 08:53:37;;;;;;;15.67;5.37;;;4.70;52.60;;;;;;4995176;28;20485;-73
2022/01/05 08:56:03;;;;;;;19.63;5.17;;;4.60;55.10;;;;;;4994957;28;20395;-72
2022/01/05 08:58:28;;;;;;;21.87;5.10;;;4.60;53.90;;;;;;4995091;28;20400;-72
2022/01/05 09:00:54;;;;;;;22.83;5.25;;;4.70;52.90;;;;;;4995646;28;20429;-73
2022/01/05 09:03:19;;;;;;;18.00;5.00;;;4.70;52.90;;;;;;4995196;28;20445;-72
2022/01/05 09:05:46;;;;;;;23.75;4.90;;;4.80;51.60;;;;;;4995303;28;20410;-74
2022/01/05 09:08:11;;;;;;;22.60;5.20;;;4.90;52.20;;;;;;4995903;28;20386;-73
2022/01/05 09:10:38;;;;;;;20.80;5.05;;;5.00;51.50;;;;;;4995909;28;20465;-73
2022/01/05 09:13:04;;;;;;;24.85;5.43;;;5.00;51.20;;;;;;4996553;28;20878;-72
2022/01/05 09:15:30;;;;;;;16.42;5.28;;;5.10;50.70;;;;;;4998976;28;20394;-73
2022/01/05 09:17:57;;;;;;;21.98;4.70;;;5.20;49.70;;;;;;5001843;28;20393;-73
2022/01/05 09:20:22;;;;;;;23.35;6.80;;;5.30;48.50;;;;;;5001987;28;20390;-72
2022/01/05 09:22:48;;;;;;;13.80;4.72;;;5.30;49.30;;;;;;4995025;28;20386;-73
2022/01/05 09:25:18;;;;;;;21.83;5.63;;;5.30;47.40;;;;;;4995037;28;20493;-71
2022/01/05 09:27:43;;;;;;;15.20;4.57;;;5.20;47.80;;;;;;4994623;28;20898;-72
2022/01/05 09:30:11;;;;;;;18.75;5.30;;;5.10;49.50;;;;;;4996226;28;20394;-72
2022/01/05 09:32:38;;;;;;;24.25;6.18;;;5.00;51.60;;;;;;5000085;28;20398;-72
2022/01/05 09:35:06;;;;;;;18.90;4.78;;;5.10;48.90;;;;;;5000279;28;20426;-72
2022/01/05 09:37:35;;;;;;;17.30;6.40;;;5.10;49.30;;;;;;4997318;28;20399;-73
2022/01/05 09:42:46;;;;;;;23.77;6.28;;;5.10;50.30;;;;;;4995091;28;20514;-74
2022/01/05 09:45:14;;;;;;;21.80;6.40;;;5.10;50.30;;;;;;4994752;28;20427;-72
2022/01/05 09:48:26;;;;;;;20.65;6.22;;;5.20;50.60;;;;;;4994740;28;20387;-72
2022/01/05 09:50:58;;;;;;;21.02;6.40;;;5.30;49.90;;;;;;4933404;28;20424;-71
2022/01/05 09:53:25;;;;;;;19.50;6.10;;;5.50;48.00;;;;;;4994417;28;20489;-73
2022/01/05 09:55:52;;;;;;;18.77;5.60;;;5.60;47.20;;;;;;4993760;28;20473;-73
2022/01/05 09:58:22;;;;;;;13.82;5.90;;;5.70;46.90;;;;;;4992460;28;20398;-73
2022/01/05 10:00:49;;;;;;;18.90;6.40;;;5.80;45.80;;;;;;4994072;28;20949;-73
2022/01/05 10:03:15;;;;;;;19.15;6.30;;;5.80;45.60;;;;;;4993919;28;20402;-72
2022/01/05 10:05:42;;;;;;;20.13;5.90;;;5.90;44.80;;;;;;4992629;28;20407;-71
2022/01/05 10:08:08;;;;;;;21.40;5.80;;;5.90;44.70;;;;;;4993312;28;20737;-72
2022/01/05 10:10:33;;;;;;;18.17;5.88;;;5.80;45.50;;;;;;4993668;28;20401;-71
2022/01/05 10:13:00;;;;;;;17.20;5.73;;;5.80;45.60;;;;;;4993565;28;20864;-72
2022/01/05 10:15:26;;;;;;;14.23;5.85;;;5.80;44.80;;;;;;4993705;28;20738;-71
2022/01/05 10:18:17;;;;;;;17.40;6.45;;;5.80;45.70;;;;;;4993825;28;20402;-72
2022/01/05 10:21:05;;;;;;;13.15;5.55;;;5.80;46.20;;;;;;4994222;28;20421;-71
2022/01/05 10:23:45;;;;;;;16.85;6.30;;;5.70;45.70;;;;;;4994070;28;20510;-72
2022/01/05 10:26:29;;;;;;;19.25;5.50;;;5.70;45.90;;;;;;4991609;28;20564;-71
2022/01/05 10:29:00;;;;;;;22.20;6.97;;;5.60;46.70;;;;;;4993716;28;20457;-72
2022/01/05 10:31:31;;;;;;;14.88;6.10;;;5.60;48.10;;;;;;4993426;28;20406;-71
2022/01/05 10:33:58;;;;;;;23.42;7.03;;;5.70;47.40;;;;;;4993798;28;20386;-71
2022/01/05 10:36:41;;;;;;;20.52;6.38;;;5.60;49.20;;;;;;4993633;28;20403;-71
2022/01/05 10:39:06;;;;;;;15.48;5.75;;;5.60;48.50;;;;;;4993530;28;20386;-72
2022/01/05 10:41:37;;;;;;;19.50;7.03;;;5.50;50.10;;;;;;4993437;28;20425;-73
2022/01/05 10:44:18;;;;;;;16.13;5.50;;;5.60;50.00;;;;;;4993979;28;20395;-72
2022/01/05 10:46:54;;;;;;;14.68;5.35;;;5.60;50.90;;;;;;4994372;28;20406;-72
2022/01/05 10:49:23;;;;;;;23.42;5.72;;;5.70;50.20;;;;;;4993686;28;20771;-73
2022/01/05 10:51:48;;;;;;;15.85;4.95;;;5.70;48.80;;;;;;4996646;28;20477;-73
2022/01/05 10:54:22;;;;;;;16.40;5.00;;;5.80;46.90;;;;;;4997387;28;20464;-72
2022/01/05 10:56:49;;;;;;;12.77;5.50;;;5.80;49.00;;;;;;4994491;28;20398;-72
2022/01/05 10:59:23;;;;;;;13.07;5.35;;;5.80;48.30;;;;;;4998861;28;20391;-73
2022/01/05 11:01:51;;;;;;;16.42;5.32;;;5.70;49.60;;;;;;4996393;28;20393;-72
2022/01/05 11:04:19;;;;;;;16.52;6.05;;;5.50;51.40;;;;;;4993109;28;20803;-71
2022/01/05 11:06:59;;;;;;;20.75;4.82;;;5.40;54.10;;;;;;4992399;28;20744;-72
2022/01/05 11:09:25;;;;;;;19.02;5.38;;;5.40;53.40;;;;;;4991951;28;20466;-72
2022/01/05 11:11:52;;;;;;;17.67;5.47;;;5.30;56.50;;;;;;4992687;28;20390;-72
2022/01/05 11:14:32;;;;;;;15.52;4.72;;;5.30;55.20;;;;;;4992724;28;20379;-71
2022/01/05 11:17:00;;;;;;;18.27;5.22;;;5.30;55.50;;;;;;4990267;28;20421;-71
2022/01/05 11:19:33;;;;;;;15.25;5.40;;;5.30;56.10;;;;;;4991132;28;20484;-71
2022/01/05 11:22:14;;;;;;;16.50;5.88;;;5.20;57.80;;;;;;4992755;28;20383;-71
2022/01/05 11:24:53;;;;;;;16.42;5.03;;;5.20;58.10;;;;;;4992441;28;20390;-73
2022/01/05 11:27:24;;;;;;;16.20;5.53;;;5.40;56.90;;;;;;4990957;28;20408;-71
2022/01/05 11:29:50;;;;;;;17.15;6.00;;;5.60;55.60;;;;;;4992508;28;20389;-72
2022/01/05 11:32:20;;;;;;;19.60;6.37;;;5.80;54.30;;;;;;4991786;28;20713;-72
2022/01/05 11:34:47;;;;;;;25.55;5.88;;;5.80;53.80;;;;;;4992556;28;20390;-72
2022/01/05 11:37:13;;;;;;;16.98;5.00;;;5.80;53.80;;;;;;4992674;28;20386;-73
2022/01/05 11:39:53;;;;;;;15.98;5.43;;;5.80;52.20;;;;;;4993201;28;20379;-73
2022/01/05 11:42:32;;;;;;;16.85;5.90;;;5.80;54.60;;;;;;4993001;28;20891;-72
2022/01/05 11:44:58;;;;;;;16.77;5.45;;;5.80;55.00;;;;;;4991382;28;20457;-73
2022/01/05 11:47:26;;;;;;;17.33;5.60;;;5.80;52.40;;;;;;4992677;28;20463;-72
2022/01/05 11:49:55;;;;;;;15.95;5.00;;;5.80;53.00;;;;;;4993154;28;20391;-74
2022/01/05 11:52:59;;;;;;;22.63;6.00;;;5.80;53.60;;;;;;4994202;28;20687;-72
2022/01/05 11:55:25;;;;;;;14.32;6.03;;;5.80;53.00;;;;;;4989607;28;20429;-71
2022/01/05 11:58:30;;;;;;;22.77;5.95;;;5.80;53.20;;;;;;4992219;28;20902;-73
2022/01/05 12:01:13;;;;;;;19.20;5.55;;;5.90;53.70;;;;;;4932057;29;20776;-72
2022/01/05 12:03:56;;;;;;;17.50;5.90;;;5.90;51.80;;;;;;4988286;28;20394;-72
2022/01/05 12:06:24;;;;;;;20.27;6.15;;;5.80;53.90;;;;;;4991917;28;20411;-71
2022/01/05 12:08:53;;;;;;;14.93;5.70;;;5.80;54.40;;;;;;4990948;28;20725;-72
2022/01/05 12:11:29;;;;;;;22.65;6.22;;;5.90;52.70;;;;;;4990751;28;20390;-72
2022/01/05 12:13:55;;;;;;;22.60;5.43;;;6.10;52.40;;;;;;4992425;28;20387;-71
2022/01/05 12:16:22;;;;;;;15.20;5.38;;;6.20;50.80;;;;;;4992031;28;20390;-71
2022/01/05 12:19:12;;;;;;;15.67;4.50;;;6.40;49.10;;;;;;4991828;28;20744;-72
2022/01/05 12:21:46;;;;;;;18.80;5.55;;;6.40;48.40;;;;;;4991768;28;20401;-72
2022/01/05 12:24:12;;;;;;;20.25;5.10;;;6.40;47.80;;;;;;4997222;28;20386;-73
2022/01/05 12:26:38;;;;;;;21.83;5.47;;;6.30;49.00;;;;;;5000963;28;20414;-71
2022/01/05 12:29:04;;;;;;;22.02;5.30;;;6.40;49.30;;;;;;5002219;28;20490;-71
2022/01/05 12:31:52;;;;;;;14.07;4.53;;;6.40;47.30;;;;;;5004521;28;20383;-70
2022/01/05 12:34:50;;;;;;;21.23;5.05;;;6.50;47.20;;;;;;4992268;28;20756;-72
2022/01/05 12:37:46;;;;;;;13.88;4.45;;;6.60;46.50;;;;;;4991501;28;20449;-73
2022/01/05 12:40:32;;;;;;;14.10;4.60;;;6.90;45.20;;;;;;4991557;28;20470;-73
2022/01/05 12:43:09;;;;;;;19.35;6.15;;;7.00;44.40;;;;;;4991637;28;20457;-73
2022/01/05 12:45:46;;;;;;;20.50;5.07;;;6.90;45.60;;;;;;4991516;28;20831;-71
2022/01/05 12:48:30;;;;;;;12.38;4.85;;;6.80;46.60;;;;;;4990959;28;20414;-73
2022/01/05 12:51:12;;;;;;;21.00;5.10;;;6.70;47.10;;;;;;4992273;28;20498;-74